createdAt,value
2023-05-09T00:02:21.344Z,15.57
2023-05-09T00:04:48.774Z,15.51
2023-05-09T00:07:44.021Z,15.53
2023-05-09T00:10:22.675Z,15.57
2023-05-09T00:12:54.301Z,15.68
2023-05-09T00:15:53.138Z,15.73
2023-05-09T00:18:21.410Z,15.76
2023-05-09T00:20:53.687Z,15.68
2023-05-09T00:23:22.153Z,15.67
2023-05-09T00:25:49.440Z,15.68
2023-05-09T00:28:17.426Z,15.72
2023-05-09T00:30:52.538Z,15.77
2023-05-09T00:33:21.554Z,15.71
2023-05-09T00:35:51.588Z,15.64
2023-05-09T00:38:22.536Z,15.64
2023-05-09T00:40:56.527Z,15.64
2023-05-09T00:43:40.809Z,15.53
2023-05-09T00:46:18.498Z,15.49
2023-05-09T00:48:48.082Z,15.53
2023-05-09T00:51:38.348Z,15.61
2023-05-09T00:54:14.939Z,15.52
2023-05-09T00:56:45.086Z,15.51
2023-05-09T00:59:14.486Z,15.47
2023-05-09T01:01:46.134Z,15.32
2023-05-09T01:04:17.596Z,15.28
2023-05-09T01:06:57.659Z,15.24
2023-05-09T01:09:33.617Z,15.23
2023-05-09T01:12:09.922Z,15.21
2023-05-09T01:18:11.266Z,15.33
2023-05-09T01:21:11.812Z,15.35
2023-05-09T01:23:49.830Z,15.18
2023-05-09T01:26:43.972Z,15.10
2023-05-09T01:29:36.746Z,15.02
2023-05-09T01:32:07.813Z,14.97
2023-05-09T01:34:55.731Z,14.97
2023-05-09T01:37:30.797Z,15.02
2023-05-09T01:40:16.240Z,14.99
2023-05-09T01:42:51.371Z,14.99
2023-05-09T01:45:24.214Z,15.07
2023-05-09T01:48:01.148Z,15.08
2023-05-09T01:50:33.110Z,15.07
2023-05-09T01:53:05.159Z,15.02
2023-05-09T01:55:47.203Z,15.05
2023-05-09T01:58:16.249Z,15.14
2023-05-09T02:00:44.620Z,15.18
2023-05-09T02:03:13.385Z,15.11
2023-05-09T02:05:49.199Z,15.04
2023-05-09T02:08:21.195Z,15.04
2023-05-09T02:10:52.861Z,15.07
2023-05-09T02:13:27.181Z,15.01
2023-05-09T02:15:59.622Z,15.01
2023-05-09T02:18:44.882Z,14.98
2023-05-09T02:21:16.011Z,14.93
2023-05-09T02:23:43.453Z,14.94
2023-05-09T02:26:12.613Z,14.91
2023-05-09T02:28:44.269Z,14.88
2023-05-09T02:31:34.223Z,14.91
2023-05-09T02:34:06.057Z,14.92
2023-05-09T02:36:36.226Z,14.88
2023-05-09T02:41:49.857Z,14.96
2023-05-09T02:44:21.984Z,14.99
2023-05-09T02:46:48.890Z,15.06
2023-05-09T02:49:31.504Z,15.03
2023-05-09T02:52:12.024Z,14.94
2023-05-09T02:54:45.900Z,14.91
2023-05-09T02:57:12.847Z,14.84
2023-05-09T02:59:43.001Z,14.83
2023-05-09T03:02:12.787Z,14.78
2023-05-09T03:04:40.824Z,14.75
2023-05-09T03:07:16.527Z,14.77
2023-05-09T03:09:44.958Z,14.75
2023-05-09T03:12:13.273Z,14.76
2023-05-09T03:15:08.051Z,14.73
2023-05-09T03:17:39.466Z,14.71
2023-05-09T03:20:14.219Z,14.67
2023-05-09T03:25:33.158Z,14.59
2023-05-09T03:28:03.292Z,14.56
2023-05-09T03:30:32.675Z,14.55
2023-05-09T03:33:21.119Z,14.54
2023-05-09T03:35:47.858Z,14.45
2023-05-09T03:38:14.784Z,14.43
2023-05-09T03:40:44.853Z,14.43
2023-05-09T03:43:33.149Z,14.38
2023-05-09T03:46:01.547Z,14.38
2023-05-09T03:48:31.378Z,14.43
2023-05-09T03:53:56.373Z,14.44
2023-05-09T03:56:23.652Z,14.43
2023-05-09T03:58:50.921Z,14.46
2023-05-09T04:01:18.624Z,14.45
2023-05-09T04:03:48.846Z,14.48
2023-05-09T04:06:16.248Z,14.50
2023-05-09T04:08:47.399Z,14.44
2023-05-09T04:11:16.991Z,14.40
2023-05-09T04:13:43.759Z,14.43
2023-05-09T04:16:15.401Z,14.47
2023-05-09T04:18:44.933Z,14.51
2023-05-09T04:21:16.298Z,14.52
2023-05-09T04:24:03.427Z,14.53
2023-05-09T04:26:38.241Z,14.51
2023-05-09T04:29:06.443Z,14.46
2023-05-09T04:31:36.773Z,14.40
2023-05-09T04:34:28.405Z,14.40
2023-05-09T04:37:02.291Z,14.38
2023-05-09T04:43:03.607Z,14.35
2023-05-09T04:45:55.517Z,14.35
2023-05-09T04:48:28.523Z,14.35
2023-05-09T04:50:59.817Z,14.32
2023-05-09T04:53:30.558Z,14.32
2023-05-09T04:55:58.402Z,14.31
2023-05-09T04:58:32.522Z,14.26
2023-05-09T05:01:05.726Z,14.23
2023-05-09T05:42:46.903Z,14.47
2023-05-09T05:45:13.966Z,14.52
2023-05-09T05:53:15.544Z,14.67
2023-05-09T05:55:46.190Z,14.71
2023-05-09T06:05:30.101Z,14.82
2023-05-09T06:07:56.560Z,14.85
2023-05-09T06:10:27.581Z,14.85
2023-05-09T06:13:00.448Z,14.85
2023-05-09T06:15:31.257Z,14.86
2023-05-09T06:18:02.889Z,14.86
2023-05-09T06:20:38.337Z,14.85
2023-05-09T06:23:17.423Z,14.88
2023-05-09T06:25:45.671Z,14.91
2023-05-09T06:28:15.996Z,14.90
2023-05-09T06:30:47.895Z,14.89
2023-05-09T06:33:17.463Z,14.91
2023-05-09T06:36:03.768Z,14.92
2023-05-09T06:42:52.890Z,14.90
2023-05-09T06:45:19.870Z,14.95
2023-05-09T06:47:51.553Z,14.97
2023-05-09T06:50:25.247Z,14.97
2023-05-09T06:52:53.857Z,15.03
2023-05-09T06:55:23.975Z,15.03
2023-05-09T06:57:53.247Z,15.05
2023-05-09T07:00:25.673Z,15.08
2023-05-09T07:02:55.959Z,15.10
2023-05-09T07:05:26.931Z,15.16
2023-05-09T07:07:58.588Z,15.16
2023-05-09T07:10:28.688Z,15.12
2023-05-09T07:12:56.796Z,15.13
2023-05-09T07:15:37.252Z,15.14
2023-05-09T07:18:15.198Z,15.15
2023-05-09T07:20:47.521Z,15.19
2023-05-09T07:23:20.304Z,15.20
2023-05-09T07:25:54.187Z,15.20
2023-05-09T07:28:26.346Z,15.23
2023-05-09T07:30:57.414Z,15.28
2023-05-09T07:33:35.210Z,15.25
2023-05-09T07:36:05.486Z,15.23
2023-05-09T07:38:32.269Z,15.18
2023-05-09T07:41:02.777Z,15.18
2023-05-09T07:43:33.255Z,15.19
2023-05-09T07:46:06.051Z,15.23
2023-05-09T07:48:36.357Z,15.27
2023-05-09T07:56:27.354Z,15.39
2023-05-09T07:59:03.551Z,15.39
2023-05-09T08:01:30.179Z,15.42
2023-05-09T08:09:30.128Z,15.32
2023-05-09T08:12:04.103Z,15.34
2023-05-09T08:20:01.795Z,15.42
2023-05-09T08:22:29.885Z,15.38
2023-05-09T08:24:56.641Z,15.41
2023-05-09T08:27:24.543Z,15.47
2023-05-09T08:29:51.771Z,15.55
2023-05-09T08:32:38.781Z,15.61
2023-05-09T08:35:29.188Z,15.61
2023-05-09T08:38:22.013Z,15.62
2023-05-09T08:40:48.875Z,15.64
2023-05-09T08:43:49.805Z,15.65
2023-05-09T08:46:39.814Z,15.58
2023-05-09T08:49:08.886Z,15.57
2023-05-09T08:51:35.973Z,15.44
2023-05-09T08:54:03.998Z,15.38
2023-05-09T08:56:31.753Z,15.37
2023-05-09T08:58:59.089Z,15.34
2023-05-09T09:01:28.180Z,15.33
2023-05-09T09:04:00.023Z,15.35
2023-05-09T09:06:34.819Z,15.39
2023-05-09T09:09:02.729Z,15.37
2023-05-09T09:11:31.466Z,15.34
2023-05-09T09:14:01.250Z,15.27
2023-05-09T09:16:33.147Z,15.26
2023-05-09T09:19:10.593Z,15.30
2023-05-09T09:21:39.774Z,15.27
2023-05-09T09:24:08.655Z,15.21
2023-05-09T09:26:48.958Z,15.20
2023-05-09T09:29:24.050Z,15.16
2023-05-09T09:34:39.108Z,15.17
2023-05-09T09:37:07.568Z,15.15
2023-05-09T09:53:00.482Z,15.29
2023-05-09T10:12:28.372Z,15.19
2023-05-09T10:15:04.344Z,15.15
2023-05-09T10:17:39.693Z,15.14
2023-05-09T10:31:21.621Z,15.22
2023-05-09T10:33:52.292Z,15.26
2023-05-09T10:36:20.876Z,15.21
2023-05-09T10:38:51.409Z,15.20
2023-05-09T10:41:20.967Z,15.13
2023-05-09T10:43:48.565Z,15.12
2023-05-09T10:46:20.344Z,15.13
2023-05-09T10:48:49.748Z,15.15
2023-05-09T10:51:17.624Z,15.15
2023-05-09T10:53:54.888Z,15.17
2023-05-09T10:56:53.645Z,15.18
2023-05-09T10:59:58.501Z,15.22
2023-05-09T11:02:32.630Z,15.27
2023-05-09T11:05:40.420Z,15.22
2023-05-09T11:08:29.521Z,15.24
2023-05-09T11:11:22.344Z,15.27
2023-05-09T11:13:57.290Z,15.24
2023-05-09T11:16:57.708Z,15.17
2023-05-09T11:19:42.971Z,15.21
2023-05-09T11:22:33.055Z,15.20
2023-05-09T11:25:14.672Z,15.19
2023-05-09T11:28:01.919Z,15.22
2023-05-09T11:30:51.012Z,15.27
2023-05-09T11:33:27.628Z,15.28
2023-05-09T11:36:17.399Z,15.22
2023-05-09T11:38:45.236Z,15.23
2023-05-09T11:41:18.282Z,15.27
2023-05-09T11:43:45.416Z,15.29
2023-05-09T11:46:22.021Z,15.26
2023-05-09T11:48:54.552Z,15.20
2023-05-09T11:51:22.210Z,15.18
2023-05-09T11:53:59.529Z,15.13
2023-05-09T11:56:30.587Z,15.12
2023-05-09T11:59:00.511Z,15.14
2023-05-09T12:01:33.368Z,15.17
2023-05-09T12:04:08.403Z,15.13
2023-05-09T12:06:38.584Z,15.03
2023-05-09T12:09:38.097Z,14.99
2023-05-09T12:12:15.881Z,15.01
2023-05-09T12:15:10.010Z,15.07
2023-05-09T12:18:10.270Z,15.06
2023-05-09T12:28:43.865Z,15.02
2023-05-09T12:31:10.550Z,15.08
2023-05-09T12:34:23.981Z,15.13
2023-05-09T12:36:58.440Z,15.13
2023-05-09T12:39:24.908Z,15.16
2023-05-09T12:42:01.068Z,15.11
2023-05-09T12:44:30.038Z,15.07
2023-05-09T12:47:08.883Z,15.04
2023-05-09T12:49:44.082Z,15.08
2023-05-09T12:52:20.909Z,15.13
2023-05-09T12:54:52.248Z,15.14
2023-05-09T12:57:47.662Z,15.14
2023-05-09T13:00:18.008Z,15.21
2023-05-09T13:02:50.977Z,15.30
2023-05-09T13:05:26.410Z,15.33
2023-05-09T13:07:59.391Z,15.36
2023-05-09T13:10:32.070Z,15.32
2023-05-09T13:12:58.842Z,15.32
2023-05-09T13:15:30.622Z,15.28
2023-05-09T13:18:00.737Z,15.27
2023-05-09T13:20:37.360Z,15.29
2023-05-09T13:23:12.685Z,15.30
2023-05-09T13:25:44.324Z,15.32
2023-05-09T13:28:15.341Z,15.37
2023-05-09T13:30:42.424Z,15.39
2023-05-09T13:33:23.936Z,15.39
2023-05-09T13:35:51.421Z,15.43
2023-05-09T13:48:42.437Z,15.59
2023-05-09T13:51:09.967Z,15.64
2023-05-09T13:53:40.362Z,15.61
2023-05-09T13:56:15.476Z,15.53
2023-05-09T13:58:44.821Z,15.46
2023-05-09T14:01:12.684Z,15.43
2023-05-09T14:03:42.700Z,15.41
2023-05-09T14:06:18.560Z,15.32
2023-05-09T14:08:45.379Z,15.31
2023-05-09T14:11:14.745Z,15.36
2023-05-09T14:13:42.509Z,15.42
2023-05-09T14:16:09.520Z,15.47
2023-05-09T14:18:39.275Z,15.49
2023-05-09T14:21:29.359Z,15.49
2023-05-09T14:23:56.817Z,15.57
2023-05-09T14:26:25.472Z,15.66
2023-05-09T14:28:53.898Z,15.67
2023-05-09T14:31:21.689Z,15.75
2023-05-09T14:33:55.959Z,15.78
2023-05-09T14:36:22.795Z,15.77
2023-05-09T14:38:50.769Z,15.71
2023-05-09T14:41:20.272Z,15.72
2023-05-09T14:43:52.777Z,15.71
2023-05-09T14:58:00.251Z,15.70
2023-05-09T15:03:11.170Z,15.72
2023-05-09T15:12:19.478Z,15.66
2023-05-09T15:14:53.855Z,15.64
2023-05-09T15:17:31.358Z,15.65
2023-05-09T15:20:25.377Z,15.63
2023-05-09T15:22:52.656Z,15.64
2023-05-09T15:48:31.748Z,15.61
2023-05-09T17:51:14.180Z,15.18
2023-05-09T22:06:43.847Z,13.76
2023-05-09T22:48:48.760Z,13.71
